createdAt,value
2022-08-11T00:01:55.865Z,3.58
2022-08-11T00:04:25.240Z,3.30
2022-08-11T00:06:53.374Z,3.80
2022-08-11T00:09:23.188Z,3.20
2022-08-11T00:11:52.816Z,3.60
2022-08-11T00:14:37.069Z,2.97
2022-08-11T00:17:10.487Z,3.38
2022-08-11T00:20:15.462Z,3.40
2022-08-11T00:22:33.117Z,3.67
2022-08-11T00:25:10.104Z,3.22
2022-08-11T00:27:41.719Z,3.28
2022-08-11T00:30:10.435Z,3.40
2022-08-11T00:32:45.352Z,3.80
2022-08-11T00:35:54.255Z,3.22
2022-08-11T00:38:07.303Z,3.63
2022-08-11T00:40:51.832Z,3.97
2022-08-11T00:43:44.441Z,3.83
2022-08-11T00:46:36.170Z,3.35
2022-08-11T00:49:19.593Z,3.40
2022-08-11T00:52:19.706Z,3.40
2022-08-11T00:55:09.751Z,3.65
2022-08-11T00:58:07.402Z,3.78
2022-08-11T01:01:01.818Z,3.60
2022-08-11T01:04:18.088Z,3.50
2022-08-11T01:06:50.635Z,4.10
2022-08-11T01:09:53.089Z,3.88
2022-08-11T01:12:33.752Z,3.42
2022-08-11T01:15:24.747Z,3.92
2022-08-11T01:18:17.531Z,3.50
2022-08-11T01:21:05.403Z,4.22
2022-08-11T01:24:13.024Z,3.80
2022-08-11T01:27:19.445Z,4.03
2022-08-11T01:30:11.542Z,4.18
2022-08-11T01:33:19.154Z,3.78
2022-08-11T01:36:04.859Z,4.05
2022-08-11T01:39:00.222Z,3.78
2022-08-11T01:42:00.873Z,3.65
2022-08-11T01:44:55.397Z,4.03
2022-08-11T01:47:56.255Z,3.40
2022-08-11T01:50:57.398Z,3.58
2022-08-11T01:53:46.545Z,4.15
2022-08-11T01:56:42.855Z,3.80
2022-08-11T01:59:22.528Z,4.18
2022-08-11T02:01:58.289Z,4.30
2022-08-11T02:04:42.509Z,4.00
2022-08-11T02:07:50.310Z,3.85
2022-08-11T02:10:42.535Z,4.57
2022-08-11T02:13:52.164Z,4.32
2022-08-11T02:16:37.141Z,4.20
2022-08-11T02:20:00.458Z,4.28
2022-08-11T02:22:59.861Z,4.07
2022-08-11T02:25:38.952Z,4.00
2022-08-11T02:28:28.981Z,4.22
2022-08-11T02:32:24.094Z,4.60
2022-08-11T02:34:39.289Z,4.70
2022-08-11T02:37:24.458Z,4.40
2022-08-11T02:40:12.685Z,4.38
2022-08-11T02:42:45.731Z,3.92
2022-08-11T02:45:13.034Z,4.35
2022-08-11T02:48:15.973Z,4.40
2022-08-11T02:51:05.504Z,4.43
2022-08-11T02:54:01.193Z,4.03
2022-08-11T02:57:05.267Z,4.38
2022-08-11T02:59:53.307Z,4.38
2022-08-11T03:02:36.373Z,4.85
2022-08-11T03:05:19.266Z,4.70
2022-08-11T03:08:11.311Z,4.35
2022-08-11T03:11:36.499Z,4.40
2022-08-11T03:14:35.762Z,4.95
2022-08-11T03:17:24.072Z,4.30
2022-08-11T03:20:06.886Z,4.65
2022-08-11T03:22:47.451Z,4.90
2022-08-11T03:25:37.798Z,4.47
2022-08-11T03:28:34.594Z,4.40
2022-08-11T03:31:25.385Z,4.70
2022-08-11T03:34:08.008Z,4.30
2022-08-11T03:37:42.334Z,5.07
2022-08-11T03:41:03.208Z,4.68
2022-08-11T03:43:58.791Z,5.30
2022-08-11T03:46:48.835Z,4.95
2022-08-11T03:49:25.392Z,5.30
2022-08-11T03:51:57.972Z,5.40
2022-08-11T03:54:54.089Z,4.93
2022-08-11T03:58:14.316Z,5.05
2022-08-11T04:01:07.848Z,4.85
2022-08-11T04:03:58.290Z,5.03
2022-08-11T04:07:23.384Z,4.78
2022-08-11T04:13:16.499Z,5.38
2022-08-11T04:16:13.901Z,4.63
2022-08-11T04:18:59.036Z,5.22
2022-08-11T04:21:59.033Z,5.10
2022-08-11T04:24:57.936Z,5.22
2022-08-11T04:27:39.415Z,5.50
2022-08-11T04:30:13.235Z,5.35
2022-08-11T04:36:00.853Z,5.13
2022-08-11T04:38:55.454Z,4.93
2022-08-11T04:42:19.504Z,5.03
2022-08-11T04:45:06.570Z,5.18
2022-08-11T04:48:18.792Z,5.15
2022-08-11T04:51:25.829Z,5.10
2022-08-11T04:54:37.370Z,5.70
2022-08-11T04:57:36.385Z,4.72
2022-08-11T05:00:33.939Z,4.82
2022-08-11T05:03:30.021Z,5.45
2022-08-11T05:06:46.125Z,5.55
2022-08-11T05:09:17.769Z,4.88
2022-08-11T05:12:03.621Z,4.93
2022-08-11T05:14:55.073Z,5.60
2022-08-11T05:17:56.549Z,5.20
2022-08-11T05:20:45.841Z,5.50
2022-08-11T05:23:32.626Z,5.53
2022-08-11T05:26:47.612Z,5.07
2022-08-11T05:29:52.955Z,5.85
2022-08-11T05:32:43.616Z,6.28
2022-08-11T05:36:01.915Z,5.78
2022-08-11T05:38:45.188Z,5.95
2022-08-11T05:41:33.713Z,5.45
2022-08-11T05:44:24.533Z,5.28
2022-08-11T05:47:13.063Z,6.10
2022-08-11T05:50:15.597Z,5.72
2022-08-11T05:53:08.954Z,5.68
2022-08-11T05:56:10.471Z,5.30
2022-08-11T05:58:43.584Z,4.88
2022-08-11T06:01:20.909Z,5.27
2022-08-11T06:04:14.828Z,5.15
2022-08-11T06:07:15.941Z,5.05
2022-08-11T06:09:52.122Z,5.00
2022-08-11T06:12:32.206Z,5.25
2022-08-11T06:15:05.828Z,4.90
2022-08-11T06:20:14.715Z,5.00
2022-08-11T06:22:52.812Z,4.97
2022-08-11T06:25:23.590Z,4.93
2022-08-11T06:27:58.250Z,5.25
2022-08-11T06:30:43.074Z,4.78
2022-08-11T06:33:13.906Z,4.57
2022-08-11T06:36:14.579Z,4.65
2022-08-11T06:38:58.846Z,4.10
2022-08-11T06:41:33.461Z,4.13
2022-08-11T06:44:11.957Z,4.25
2022-08-11T06:46:51.491Z,3.95
2022-08-11T06:50:05.305Z,3.92
2022-08-11T06:52:36.461Z,3.67
2022-08-11T06:55:55.418Z,3.80
2022-08-11T06:58:54.501Z,3.70
2022-08-11T07:01:51.056Z,4.80
2022-08-11T07:04:35.884Z,4.03
2022-08-11T07:07:41.223Z,3.72
2022-08-11T07:10:32.797Z,4.10
2022-08-11T07:13:44.295Z,3.38
2022-08-11T07:16:18.647Z,3.45
2022-08-11T07:19:17.581Z,2.92
2022-08-11T07:22:10.094Z,2.60
2022-08-11T07:25:14.032Z,2.70
2022-08-11T07:28:15.285Z,2.60
2022-08-11T07:30:43.398Z,2.47
2022-08-11T07:33:11.612Z,3.40
2022-08-11T07:36:02.405Z,2.40
2022-08-11T07:38:47.252Z,2.50
2022-08-11T07:41:16.803Z,2.33
2022-08-11T07:43:51.004Z,2.50
2022-08-11T07:46:45.021Z,2.00
2022-08-11T07:49:32.781Z,2.22
2022-08-11T07:52:18.821Z,2.33
2022-08-11T07:54:54.116Z,2.70
2022-08-11T07:58:13.701Z,2.53
2022-08-11T08:00:52.305Z,3.05
2022-08-11T08:03:54.508Z,2.90
2022-08-11T08:06:44.810Z,3.03
2022-08-11T08:09:46.175Z,2.55
2022-08-11T08:12:38.795Z,2.40
2022-08-11T08:15:39.075Z,2.50
2022-08-11T08:18:20.585Z,2.60
2022-08-11T08:20:55.662Z,2.80
2022-08-11T08:23:34.021Z,2.60
2022-08-11T08:26:26.558Z,2.85
2022-08-11T08:28:55.169Z,3.03
2022-08-11T08:31:22.336Z,2.25
2022-08-11T08:33:48.910Z,2.70
2022-08-11T08:36:21.880Z,2.55
2022-08-11T08:38:58.590Z,2.80
2022-08-11T08:41:32.216Z,2.65
2022-08-11T08:44:27.703Z,2.60
2022-08-11T08:47:02.641Z,2.50
2022-08-11T08:49:40.584Z,2.63
2022-08-11T08:52:30.884Z,2.38
2022-08-11T08:55:04.149Z,2.20
2022-08-11T08:57:38.946Z,2.45
2022-08-11T09:00:23.380Z,2.80
2022-08-11T09:02:53.540Z,2.58
2022-08-11T09:05:31.704Z,2.95
2022-08-11T09:08:03.105Z,2.90
2022-08-11T09:10:37.200Z,2.58
2022-08-11T09:13:06.173Z,2.60
2022-08-11T09:15:33.622Z,2.47
2022-08-11T09:18:06.430Z,2.40
2022-08-11T09:20:42.328Z,3.05
2022-08-11T09:24:08.940Z,2.83
2022-08-11T09:26:48.671Z,2.28
2022-08-11T09:29:18.621Z,1.95
2022-08-11T09:31:50.807Z,2.40
2022-08-11T09:34:20.850Z,2.17
2022-08-11T09:37:13.823Z,2.33
2022-08-11T09:40:16.483Z,2.28
2022-08-11T09:43:04.402Z,2.50
2022-08-11T09:45:39.930Z,2.22
2022-08-11T09:48:14.291Z,2.47
2022-08-11T09:50:41.509Z,2.65
2022-08-11T09:53:35.080Z,2.63
2022-08-11T09:56:25.702Z,3.30
2022-08-11T09:58:52.800Z,2.10
2022-08-11T10:01:28.220Z,2.58
2022-08-11T10:04:15.391Z,4.07
2022-08-11T10:07:09.251Z,2.53
2022-08-11T10:09:47.388Z,2.60
2022-08-11T10:12:26.138Z,2.47
2022-08-11T10:15:20.660Z,2.70
2022-08-11T10:18:17.482Z,2.90
2022-08-11T10:20:50.186Z,2.53
2022-08-11T10:23:36.409Z,2.92
2022-08-11T10:27:00.295Z,2.63
2022-08-11T10:29:59.727Z,2.80
2022-08-11T10:32:58.638Z,2.50
2022-08-11T10:35:37.956Z,2.30
2022-08-11T10:38:11.677Z,3.30
2022-08-11T10:40:45.579Z,2.83
2022-08-11T10:43:14.514Z,2.38
2022-08-11T10:46:30.020Z,2.42
2022-08-11T10:48:59.144Z,2.85
2022-08-11T10:51:50.773Z,2.53
2022-08-11T10:54:40.173Z,2.60
2022-08-11T10:57:28.737Z,2.75
2022-08-11T11:00:02.526Z,2.70
2022-08-11T11:02:29.804Z,2.53
2022-08-11T11:05:02.508Z,2.58
2022-08-11T11:07:47.814Z,2.28
2022-08-11T11:10:16.269Z,2.25
2022-08-11T11:13:06.066Z,2.90
2022-08-11T11:15:54.718Z,2.85
2022-08-11T11:18:24.979Z,2.53
2022-08-11T11:21:00.222Z,2.30
2022-08-11T11:23:39.504Z,2.50
2022-08-11T11:26:28.041Z,2.58
2022-08-11T11:29:32.609Z,2.47
2022-08-11T11:32:32.854Z,2.40
2022-08-11T11:35:18.064Z,2.40
2022-08-11T11:38:03.756Z,2.53
2022-08-11T11:40:37.898Z,2.55
2022-08-11T11:43:06.961Z,8.18
2022-08-11T11:45:33.793Z,2.63
2022-08-11T11:48:06.354Z,2.80
2022-08-11T11:50:37.628Z,2.60
2022-08-11T11:53:14.335Z,2.70
2022-08-11T11:55:51.400Z,2.80
2022-08-11T11:58:37.669Z,2.22
2022-08-11T12:01:17.189Z,2.42
2022-08-11T12:04:03.026Z,2.70
2022-08-11T12:06:37.641Z,2.80
2022-08-11T12:09:05.728Z,2.30
2022-08-11T12:11:54.748Z,2.25
2022-08-11T12:14:21.770Z,2.30
2022-08-11T12:16:49.255Z,2.35
2022-08-11T12:19:19.016Z,2.17
2022-08-11T12:22:13.885Z,3.50
2022-08-11T12:25:05.869Z,3.40
2022-08-11T12:27:42.670Z,2.55
2022-08-11T12:30:09.982Z,2.20
2022-08-11T12:32:43.037Z,2.15
2022-08-11T12:35:14.352Z,2.17
2022-08-11T12:37:54.277Z,2.53
2022-08-11T12:41:13.714Z,2.20
2022-08-11T12:44:06.639Z,2.33
2022-08-11T12:46:35.597Z,2.30
2022-08-11T12:49:31.014Z,2.60
2022-08-11T12:52:25.550Z,1.90
2022-08-11T12:55:12.582Z,2.50
2022-08-11T12:58:04.250Z,2.33
2022-08-11T13:00:53.514Z,2.15
2022-08-11T13:03:45.308Z,2.90
2022-08-11T13:06:24.547Z,2.38
2022-08-11T13:08:52.441Z,2.10
2022-08-11T13:11:56.823Z,3.03
2022-08-11T13:14:34.059Z,2.20
2022-08-11T13:17:22.247Z,2.03
2022-08-11T13:20:16.259Z,2.05
2022-08-11T13:22:55.670Z,2.50
2022-08-11T13:25:29.689Z,1.90
2022-08-11T13:28:01.462Z,1.95
2022-08-11T13:30:52.653Z,2.15
2022-08-11T13:33:21.451Z,1.95
2022-08-11T13:35:56.496Z,1.95
2022-08-11T13:38:26.241Z,1.92
2022-08-11T13:41:00.806Z,1.80
2022-08-11T13:43:31.758Z,2.10
2022-08-11T13:46:21.165Z,1.77
2022-08-11T13:48:49.923Z,2.10
2022-08-11T13:51:36.798Z,2.28
2022-08-11T13:54:09.355Z,2.13
2022-08-11T13:56:41.803Z,2.38
2022-08-11T13:59:10.322Z,2.10
2022-08-11T14:02:19.482Z,1.95
2022-08-11T14:04:57.018Z,2.38
2022-08-11T14:07:28.353Z,2.58
2022-08-11T14:09:59.126Z,2.40
2022-08-11T14:12:50.961Z,1.92
2022-08-11T14:15:25.270Z,2.65
2022-08-11T14:17:57.340Z,2.70
2022-08-11T14:20:48.200Z,2.15
2022-08-11T14:23:15.579Z,2.00
2022-08-11T14:26:03.175Z,2.08
2022-08-11T14:28:40.049Z,2.38
2022-08-11T14:31:11.501Z,3.10
2022-08-11T14:33:59.447Z,2.22
2022-08-11T14:36:28.981Z,2.60
2022-08-11T14:38:56.894Z,2.35
2022-08-11T14:42:12.666Z,2.00
2022-08-11T14:44:56.305Z,2.17
2022-08-11T14:47:25.798Z,2.20
2022-08-11T14:50:10.233Z,2.35
2022-08-11T14:52:44.323Z,2.00
2022-08-11T14:55:33.000Z,2.05
2022-08-11T14:58:02.405Z,2.95
2022-08-11T15:00:31.108Z,1.88
2022-08-11T15:03:12.234Z,2.05
2022-08-11T15:06:00.280Z,2.20
2022-08-11T15:08:56.466Z,2.25
2022-08-11T15:11:50.160Z,2.40
2022-08-11T15:14:38.611Z,2.40
2022-08-11T15:17:10.572Z,1.65
2022-08-11T15:20:00.621Z,2.53
2022-08-11T15:22:46.272Z,2.30
2022-08-11T15:25:13.110Z,2.47
2022-08-11T15:28:00.797Z,2.40
2022-08-11T15:30:47.027Z,2.33
2022-08-11T15:33:35.570Z,2.60
2022-08-11T15:36:26.229Z,2.50
2022-08-11T15:38:57.742Z,2.85
2022-08-11T15:41:58.773Z,2.42
2022-08-11T15:45:06.029Z,2.85
2022-08-11T15:47:46.139Z,2.70
2022-08-11T15:50:19.501Z,2.33
2022-08-11T15:52:53.665Z,2.40
2022-08-11T15:55:25.418Z,2.53
2022-08-11T15:58:13.685Z,2.67
2022-08-11T16:01:04.303Z,2.30
2022-08-11T16:04:07.239Z,2.70
2022-08-11T16:06:47.635Z,4.05
2022-08-11T16:09:21.277Z,2.80
2022-08-11T16:11:49.352Z,2.47
2022-08-11T16:14:36.497Z,2.42
2022-08-11T16:17:05.836Z,3.70
2022-08-11T16:19:37.175Z,2.20
2022-08-11T16:22:11.170Z,2.78
2022-08-11T16:27:01.996Z,2.88
2022-08-11T16:27:34.063Z,2.63
2022-08-11T16:30:01.590Z,2.83
2022-08-11T16:32:28.947Z,2.55
2022-08-11T16:35:18.840Z,2.90
2022-08-11T16:38:05.543Z,2.42
2022-08-11T16:40:33.610Z,2.70
2022-08-11T16:43:21.367Z,2.72
2022-08-11T16:46:07.667Z,3.17
2022-08-11T16:48:39.073Z,2.80
2022-08-11T16:51:07.825Z,2.70
2022-08-11T16:53:54.687Z,2.75
2022-08-11T16:56:39.705Z,3.92
2022-08-11T16:59:17.890Z,2.75
2022-08-11T17:01:59.393Z,3.28
2022-08-11T17:04:54.972Z,2.90
2022-08-11T17:07:50.129Z,3.15
2022-08-11T17:10:55.671Z,2.58
2022-08-11T17:13:35.293Z,2.65
2022-08-11T17:16:08.660Z,3.10
2022-08-11T17:19:02.897Z,2.90
2022-08-11T17:21:37.344Z,3.63
2022-08-11T17:24:09.529Z,2.70
2022-08-11T17:26:55.642Z,3.77
2022-08-11T17:29:32.105Z,3.20
2022-08-11T17:32:20.701Z,3.47
2022-08-11T17:35:08.661Z,3.05
2022-08-11T17:37:41.145Z,3.20
2022-08-11T17:40:15.841Z,3.53
2022-08-11T17:43:03.439Z,2.95
2022-08-11T17:45:50.361Z,2.65
2022-08-11T17:48:26.212Z,3.33
2022-08-11T17:51:03.086Z,2.97
2022-08-11T17:54:10.234Z,3.00
2022-08-11T17:56:58.478Z,2.88
2022-08-11T17:59:43.654Z,2.60
2022-08-11T18:02:36.913Z,2.70
2022-08-11T18:05:12.260Z,3.08
2022-08-11T18:08:01.492Z,2.85
2022-08-11T18:10:49.320Z,2.58
2022-08-11T18:13:41.312Z,3.13
2022-08-11T18:16:27.581Z,3.47
2022-08-11T18:19:13.610Z,2.58
2022-08-11T18:22:14.774Z,3.13
2022-08-11T18:25:07.207Z,3.42
2022-08-11T18:27:54.862Z,2.53
2022-08-11T18:30:41.695Z,4.45
2022-08-11T18:36:42.678Z,8.55
2022-08-11T18:42:29.010Z,2.90
2022-08-11T18:45:20.186Z,3.00
2022-08-11T18:48:11.339Z,3.03
2022-08-11T18:51:31.671Z,2.50
2022-08-11T18:54:22.447Z,2.75
2022-08-11T18:57:08.725Z,2.83
2022-08-11T19:00:00.836Z,2.70
2022-08-11T19:02:49.152Z,3.00
2022-08-11T19:06:35.490Z,3.38
2022-08-11T19:08:50.083Z,3.78
2022-08-11T19:11:40.974Z,3.40
2022-08-11T19:14:37.833Z,5.15
2022-08-11T19:17:43.823Z,4.50
2022-08-11T19:20:39.505Z,3.13
2022-08-11T19:23:26.636Z,2.88
2022-08-11T19:26:12.044Z,3.00
2022-08-11T19:29:00.527Z,2.70
2022-08-11T19:31:47.765Z,3.13
2022-08-11T19:34:40.332Z,3.10
2022-08-11T19:37:28.842Z,3.10
2022-08-11T19:40:24.754Z,3.83
2022-08-11T19:43:20.595Z,3.15
2022-08-11T19:46:15.470Z,3.13
2022-08-11T19:49:03.018Z,3.13
2022-08-11T19:51:53.831Z,3.22
2022-08-11T19:54:44.252Z,3.00
2022-08-11T19:57:34.572Z,2.95
2022-08-11T20:00:30.580Z,2.88
2022-08-11T20:03:17.651Z,3.53
2022-08-11T20:06:04.266Z,3.30
2022-08-11T20:08:55.119Z,3.08
2022-08-11T20:14:32.247Z,2.85
2022-08-11T20:17:22.588Z,2.85
2022-08-11T20:20:10.501Z,2.97
2022-08-11T20:22:58.064Z,2.85
2022-08-11T20:25:46.297Z,2.70
2022-08-11T20:28:33.451Z,2.70
2022-08-11T20:31:21.010Z,2.75
2022-08-11T20:34:11.086Z,2.78
2022-08-11T20:37:01.463Z,3.45
2022-08-11T20:39:47.790Z,6.47
2022-08-11T20:42:33.560Z,3.30
2022-08-11T20:45:23.418Z,4.43
2022-08-11T20:48:14.650Z,4.35
2022-08-11T20:51:11.765Z,3.33
2022-08-11T20:54:07.701Z,3.00
2022-08-11T20:56:54.521Z,2.60
2022-08-11T20:59:52.794Z,3.03
2022-08-11T21:02:44.535Z,3.00
2022-08-11T21:06:09.100Z,3.00
2022-08-11T21:08:39.130Z,3.05
2022-08-11T21:11:28.695Z,2.67
2022-08-11T21:14:14.265Z,2.60
2022-08-11T21:17:25.941Z,3.15
2022-08-11T21:20:17.030Z,2.70
2022-08-11T21:23:23.340Z,3.00
2022-08-11T21:26:15.704Z,2.80
2022-08-11T21:29:01.214Z,2.80
2022-08-11T21:31:51.598Z,3.15
2022-08-11T21:34:40.043Z,2.67
2022-08-11T21:37:31.032Z,2.40
2022-08-11T21:40:18.471Z,2.50
2022-08-11T21:43:08.385Z,2.88
2022-08-11T21:45:58.373Z,2.55
2022-08-11T21:48:47.363Z,2.72
2022-08-11T21:51:34.335Z,2.53
2022-08-11T21:54:20.958Z,2.88
2022-08-11T21:57:10.632Z,2.55
2022-08-11T22:00:14.545Z,3.00
2022-08-11T22:03:04.628Z,3.42
2022-08-11T22:05:52.485Z,3.15
2022-08-11T22:08:38.931Z,2.85
2022-08-11T22:11:31.691Z,2.85
2022-08-11T22:14:25.841Z,3.00
2022-08-11T22:17:11.032Z,2.65
2022-08-11T22:20:00.855Z,2.90
2022-08-11T22:22:52.333Z,2.97
2022-08-11T22:25:39.081Z,2.92
2022-08-11T22:28:31.902Z,2.78
2022-08-11T22:31:18.901Z,2.95
2022-08-11T22:34:09.285Z,3.83
2022-08-11T22:36:56.344Z,3.05
2022-08-11T22:39:43.691Z,3.28
2022-08-11T22:42:33.867Z,3.25
2022-08-11T22:45:19.943Z,3.20
2022-08-11T22:48:06.723Z,3.30
2022-08-11T22:50:57.053Z,3.33
2022-08-11T22:53:57.253Z,2.92
2022-08-11T22:56:46.571Z,3.10
2022-08-11T22:59:39.125Z,2.63
2022-08-11T23:02:26.457Z,3.17
2022-08-11T23:31:50.255Z,3.20
2022-08-11T23:35:03.484Z,3.03
2022-08-11T23:37:50.836Z,3.00
2022-08-11T23:40:35.995Z,3.03
2022-08-11T23:43:21.653Z,2.95
2022-08-11T23:46:06.639Z,2.90
2022-08-11T23:48:52.684Z,3.00
2022-08-11T23:51:40.719Z,2.83
2022-08-11T23:54:28.420Z,3.15
2022-08-11T23:57:14.272Z,3.00
2022-08-11T23:59:59.683Z,2.95
